Time;durP1;ratioP1;P1;durP2;ratioP2;P2;SDS_P1;SDS_P2;PMS_P1;PMS_P2;Temp;Humidity;BMP_temperature;BMP_pressure;BME280_temperature;BME280_humidity;BME280_pressure;Samples;Min_cycle;Max_cycle;Signal;HPM_P1;HPM_P2
2022/07/20 00:01:24;;;;;;;;;28.00;24.50;;;;;;;;5044081;28;50930;-63
2022/07/20 00:03:49;;;;;;;;;27.50;26.25;;;;;;;;5037199;28;51123;-62
2022/07/20 00:06:14;;;;;;;;;25.50;25.50;;;;;;;;5053311;28;51249;-61
2022/07/20 00:11:23;;;;;;;;;26.75;26.00;;;;;;;;5053779;28;50969;-62
2022/07/20 00:13:48;;;;;;;;;31.75;29.75;;;;;;;;5053270;28;51408;-62
2022/07/20 00:16:14;;;;;;;;;25.00;24.00;;;;;;;;5050494;28;51146;-62
2022/07/20 00:18:39;;;;;;;;;27.50;26.75;;;;;;;;5034057;28;51057;-63
2022/07/20 00:21:04;;;;;;;;;24.00;23.25;;;;;;;;5033609;28;51130;-62
2022/07/20 00:23:29;;;;;;;;;26.75;26.25;;;;;;;;5033372;28;51386;-64
2022/07/20 00:25:55;;;;;;;;;26.25;26.00;;;;;;;;5033164;28;51095;-61
2022/07/20 00:28:20;;;;;;;;;29.00;27.00;;;;;;;;5038273;28;51053;-62
2022/07/20 00:30:46;;;;;;;;;28.50;28.00;;;;;;;;5053147;28;50969;-63
2022/07/20 00:33:12;;;;;;;;;27.00;27.00;;;;;;;;5053273;28;50917;-62
2022/07/20 00:35:37;;;;;;;;;28.00;26.50;;;;;;;;5052961;28;51634;-62
2022/07/20 00:38:02;;;;;;;;;25.75;25.25;;;;;;;;5052950;28;51130;-63
2022/07/20 00:40:27;;;;;;;;;26.75;26.25;;;;;;;;5052412;28;51242;-62
2022/07/20 00:42:53;;;;;;;;;21.50;21.50;;;;;;;;5037170;28;50959;-63
2022/07/20 00:45:18;;;;;;;;;28.75;26.00;;;;;;;;5052608;28;51791;-62
2022/07/20 00:47:43;;;;;;;;;22.25;22.25;;;;;;;;5052947;28;50942;-62
2022/07/20 00:50:08;;;;;;;;;31.00;28.50;;;;;;;;5053130;28;51278;-63
2022/07/20 00:52:34;;;;;;;;;27.25;24.75;;;;;;;;5046080;28;51353;-62
2022/07/20 00:54:59;;;;;;;;;31.75;29.50;;;;;;;;5032650;28;50933;-63
2022/07/20 00:57:24;;;;;;;;;29.50;26.00;;;;;;;;5032009;28;51053;-61
2022/07/20 00:59:49;;;;;;;;;30.50;28.75;;;;;;;;5032805;28;51358;-63
2022/07/20 01:02:15;;;;;;;;;27.00;26.00;;;;;;;;5046349;28;51157;-63
2022/07/20 01:04:40;;;;;;;;;29.50;28.50;;;;;;;;5040783;28;51557;-62
2022/07/20 01:07:05;;;;;;;;;32.25;31.00;;;;;;;;5052777;28;50811;-62
2022/07/20 01:09:31;;;;;;;;;31.00;30.00;;;;;;;;5052926;28;51064;-62
2022/07/20 01:11:56;;;;;;;;;35.25;31.25;;;;;;;;5052944;28;51118;-62
2022/07/20 01:14:21;;;;;;;;;32.25;29.75;;;;;;;;5052567;28;51016;-63
2022/07/20 01:16:46;;;;;;;;;34.75;32.50;;;;;;;;5044835;28;51205;-62
2022/07/20 01:19:12;;;;;;;;;36.00;33.25;;;;;;;;5041515;28;52083;-63
2022/07/20 01:21:43;;;;;;;;;41.00;35.00;;;;;;;;5032703;28;51160;-61
2022/07/20 01:24:12;;;;;;;;;43.25;36.50;;;;;;;;5032191;28;51456;-62
2022/07/20 01:26:39;;;;;;;;;45.50;38.75;;;;;;;;5032311;28;51062;-63
2022/07/20 01:29:04;;;;;;;;;47.25;40.50;;;;;;;;5039197;28;51077;-62
2022/07/20 01:31:29;;;;;;;;;46.75;39.25;;;;;;;;5034378;28;50979;-64
2022/07/20 01:33:55;;;;;;;;;47.75;39.50;;;;;;;;5032261;28;52030;-63
2022/07/20 01:36:20;;;;;;;;;49.00;41.50;;;;;;;;5032281;28;51116;-62
2022/07/20 01:38:45;;;;;;;;;50.00;41.50;;;;;;;;5032817;28;51174;-62
2022/07/20 01:41:10;;;;;;;;;50.00;42.25;;;;;;;;5037813;28;51170;-61
2022/07/20 01:43:36;;;;;;;;;49.75;42.00;;;;;;;;5055664;28;51091;-62
2022/07/20 01:46:01;;;;;;;;;49.00;41.00;;;;;;;;5055483;28;51018;-65
2022/07/20 01:48:26;;;;;;;;;54.25;44.00;;;;;;;;5056084;28;51188;-61
2022/07/20 01:50:51;;;;;;;;;52.00;43.00;;;;;;;;5051675;28;51339;-62
2022/07/20 01:53:17;;;;;;;;;54.25;45.00;;;;;;;;5045441;28;51091;-62
2022/07/20 01:55:42;;;;;;;;;59.50;48.00;;;;;;;;5051146;28;51561;-61
2022/07/20 01:58:07;;;;;;;;;57.00;47.25;;;;;;;;5035689;28;51032;-61
2022/07/20 02:00:32;;;;;;;;;56.75;47.25;;;;;;;;5038721;28;51244;-61
2022/07/20 02:02:57;;;;;;;;;56.00;46.00;;;;;;;;5055670;28;51033;-61
2022/07/20 02:05:23;;;;;;;;;60.25;49.00;;;;;;;;5039888;28;50973;-61
2022/07/20 02:07:48;;;;;;;;;55.50;46.00;;;;;;;;5035989;28;50893;-61
2022/07/20 02:10:14;;;;;;;;;59.25;48.25;;;;;;;;5052593;28;51027;-64
2022/07/20 02:12:40;;;;;;;;;57.75;48.00;;;;;;;;5055028;28;52290;-62
2022/07/20 02:15:06;;;;;;;;;55.00;44.50;;;;;;;;5036872;28;51031;-62
2022/07/20 02:17:32;;;;;;;;;57.00;46.25;;;;;;;;5044859;28;51157;-61
2022/07/20 02:19:57;;;;;;;;;56.50;46.75;;;;;;;;5021063;28;51414;-62
2022/07/20 02:22:22;;;;;;;;;58.25;47.75;;;;;;;;5034857;28;52803;-62
2022/07/20 02:24:47;;;;;;;;;57.25;47.25;;;;;;;;5035135;28;51002;-62
2022/07/20 02:27:13;;;;;;;;;57.00;47.00;;;;;;;;5035210;28;50929;-62
2022/07/20 02:29:38;;;;;;;;;60.50;49.75;;;;;;;;5040457;28;51112;-62
2022/07/20 02:32:03;;;;;;;;;55.50;46.25;;;;;;;;5034585;28;51100;-62
2022/07/20 02:34:29;;;;;;;;;56.00;45.75;;;;;;;;5034795;28;51033;-61
2022/07/20 02:36:54;;;;;;;;;58.75;47.25;;;;;;;;5034905;28;50915;-62
2022/07/20 02:39:19;;;;;;;;;57.75;47.25;;;;;;;;5035128;28;51164;-62
2022/07/20 02:41:44;;;;;;;;;57.50;47.00;;;;;;;;5050172;28;51917;-62
2022/07/20 02:44:09;;;;;;;;;57.75;46.75;;;;;;;;5039318;28;51109;-62
2022/07/20 02:46:35;;;;;;;;;60.00;49.00;;;;;;;;5034582;28;51259;-61
2022/07/20 02:49:00;;;;;;;;;56.50;46.50;;;;;;;;5044031;28;51049;-63
2022/07/20 02:51:25;;;;;;;;;57.50;46.00;;;;;;;;5036893;28;51760;-60
2022/07/20 02:53:50;;;;;;;;;61.00;48.50;;;;;;;;5048525;28;52673;-62
2022/07/20 02:56:15;;;;;;;;;56.50;46.25;;;;;;;;5034983;28;51084;-62
2022/07/20 02:58:41;;;;;;;;;59.25;48.00;;;;;;;;5034877;28;50982;-62
2022/07/20 03:01:06;;;;;;;;;59.50;48.00;;;;;;;;5042576;28;51245;-61
2022/07/20 03:03:31;;;;;;;;;60.25;49.00;;;;;;;;5039946;28;51006;-62
2022/07/20 03:05:56;;;;;;;;;52.00;43.25;;;;;;;;5040216;28;51108;-62
2022/07/20 03:08:22;;;;;;;;;62.00;50.50;;;;;;;;5040401;28;51298;-62
2022/07/20 03:10:47;;;;;;;;;59.50;48.50;;;;;;;;5034269;28;50981;-61
2022/07/20 03:13:12;;;;;;;;;61.75;50.00;;;;;;;;5035390;28;50796;-62
2022/07/20 03:15:37;;;;;;;;;60.00;48.00;;;;;;;;5052033;28;51037;-62
2022/07/20 03:18:02;;;;;;;;;62.25;50.25;;;;;;;;5037489;28;51044;-62
2022/07/20 03:20:29;;;;;;;;;61.00;49.00;;;;;;;;5016264;28;52054;-62
2022/07/20 03:22:55;;;;;;;;;58.25;47.75;;;;;;;;5034423;28;51009;-63
2022/07/20 03:25:20;;;;;;;;;56.75;46.50;;;;;;;;5034538;28;51057;-62
2022/07/20 03:27:45;;;;;;;;;62.25;50.25;;;;;;;;5034411;28;51178;-62
2022/07/20 03:30:11;;;;;;;;;60.00;49.75;;;;;;;;5041574;28;52015;-63
2022/07/20 03:32:36;;;;;;;;;61.50;50.25;;;;;;;;5054137;28;51109;-62
2022/07/20 03:35:02;;;;;;;;;61.25;50.25;;;;;;;;5054117;28;50961;-62
2022/07/20 03:37:27;;;;;;;;;58.25;48.25;;;;;;;;5054310;28;51215;-62
2022/07/20 03:39:52;;;;;;;;;60.50;49.25;;;;;;;;5054022;28;51973;-62
2022/07/20 03:42:17;;;;;;;;;60.25;49.25;;;;;;;;5034526;28;51122;-62
2022/07/20 03:44:43;;;;;;;;;61.50;50.25;;;;;;;;5033980;28;51228;-62
2022/07/20 03:47:08;;;;;;;;;58.75;48.50;;;;;;;;5033945;28;50904;-62
2022/07/20 03:49:33;;;;;;;;;60.25;50.25;;;;;;;;5035864;28;51569;-62
2022/07/20 03:51:58;;;;;;;;;61.25;49.50;;;;;;;;5052620;28;51136;-62
2022/07/20 03:54:23;;;;;;;;;58.00;48.00;;;;;;;;5034213;28;50989;-62
2022/07/20 03:56:49;;;;;;;;;61.00;49.25;;;;;;;;5033996;28;50904;-62
2022/07/20 03:59:14;;;;;;;;;63.00;50.25;;;;;;;;5033551;28;51053;-62
2022/07/20 04:01:39;;;;;;;;;58.25;48.00;;;;;;;;5052110;28;51044;-62
2022/07/20 04:04:05;;;;;;;;;61.50;50.50;;;;;;;;5047324;28;51178;-61
2022/07/20 04:06:31;;;;;;;;;59.50;47.50;;;;;;;;5015802;28;51070;-62
2022/07/20 04:08:56;;;;;;;;;60.25;48.25;;;;;;;;5039803;28;51594;-62
2022/07/20 04:11:21;;;;;;;;;55.25;46.25;;;;;;;;5040477;28;51112;-62
2022/07/20 04:13:47;;;;;;;;;55.50;45.25;;;;;;;;5032742;28;51429;-61
2022/07/20 04:16:12;;;;;;;;;49.00;40.75;;;;;;;;5046250;28;51073;-63
2022/07/20 04:18:37;;;;;;;;;46.75;39.25;;;;;;;;5032908;28;52137;-61
2022/07/20 04:21:03;;;;;;;;;46.00;38.75;;;;;;;;5033349;28;51045;-62
2022/07/20 04:23:29;;;;;;;;;42.75;37.75;;;;;;;;5033197;28;50831;-62
2022/07/20 04:25:54;;;;;;;;;36.25;32.50;;;;;;;;5037911;28;51212;-62
2022/07/20 04:28:19;;;;;;;;;34.25;32.00;;;;;;;;5032790;28;51065;-62
2022/07/20 04:30:44;;;;;;;;;31.50;29.75;;;;;;;;5033034;28;51013;-62
2022/07/20 04:33:10;;;;;;;;;23.25;22.25;;;;;;;;5032827;28;51057;-62
2022/07/20 04:35:36;;;;;;;;;27.25;26.50;;;;;;;;5045405;28;51117;-62
2022/07/20 04:38:01;;;;;;;;;29.00;26.25;;;;;;;;5052158;28;52636;-62
2022/07/20 04:40:26;;;;;;;;;29.50;28.00;;;;;;;;5053034;28;51091;-61
2022/07/20 04:42:51;;;;;;;;;29.25;27.50;;;;;;;;5048198;28;51892;-62
2022/07/20 04:45:16;;;;;;;;;31.25;29.25;;;;;;;;5033043;28;51467;-62
2022/07/20 04:47:42;;;;;;;;;30.75;30.25;;;;;;;;5032351;28;51891;-62
2022/07/20 04:50:08;;;;;;;;;30.50;29.25;;;;;;;;5052453;28;50944;-62
2022/07/20 04:52:33;;;;;;;;;31.75;30.25;;;;;;;;5024467;28;51078;-62
2022/07/20 04:54:58;;;;;;;;;32.25;30.50;;;;;;;;5042181;28;51271;-62
2022/07/20 04:57:23;;;;;;;;;31.50;30.25;;;;;;;;5032462;28;51196;-62
2022/07/20 04:59:48;;;;;;;;;32.00;30.75;;;;;;;;5032542;28;50980;-61
2022/07/20 05:02:14;;;;;;;;;33.25;30.25;;;;;;;;5032623;28;50852;-62
2022/07/20 05:04:39;;;;;;;;;34.50;31.00;;;;;;;;5032905;28;51078;-62
2022/07/20 05:07:04;;;;;;;;;29.25;29.00;;;;;;;;5032180;28;52147;-61
2022/07/20 05:09:29;;;;;;;;;30.75;29.50;;;;;;;;5042836;28;51092;-62
2022/07/20 05:11:55;;;;;;;;;38.25;33.25;;;;;;;;5034678;28;51626;-62
2022/07/20 05:14:20;;;;;;;;;28.00;27.50;;;;;;;;5050791;28;51341;-62
2022/07/20 05:16:45;;;;;;;;;31.00;28.75;;;;;;;;5040213;28;51670;-62
2022/07/20 05:19:11;;;;;;;;;34.50;32.25;;;;;;;;5032500;28;50983;-62
2022/07/20 05:21:36;;;;;;;;;33.25;30.50;;;;;;;;5032404;28;51004;-61
2022/07/20 05:24:01;;;;;;;;;31.25;30.25;;;;;;;;5032627;28;51192;-61
2022/07/20 05:26:27;;;;;;;;;24.50;24.50;;;;;;;;5014673;28;51941;-61
2022/07/20 05:28:52;;;;;;;;;28.00;27.50;;;;;;;;5032385;28;50886;-62
2022/07/20 05:31:18;;;;;;;;;26.75;26.50;;;;;;;;5040136;28;50860;-63
2022/07/20 05:33:43;;;;;;;;;23.25;22.25;;;;;;;;5050535;28;50938;-62
2022/07/20 05:36:09;;;;;;;;;18.50;18.50;;;;;;;;5047896;28;51091;-66
2022/07/20 05:38:34;;;;;;;;;19.00;18.75;;;;;;;;5041971;28;50909;-62
2022/07/20 05:40:59;;;;;;;;;21.75;19.50;;;;;;;;5032218;28;50906;-62
2022/07/20 05:43:25;;;;;;;;;25.25;23.25;;;;;;;;5032548;28;50930;-62
2022/07/20 05:45:50;;;;;;;;;21.00;20.25;;;;;;;;5031514;28;51040;-62
2022/07/20 05:48:15;;;;;;;;;23.75;23.00;;;;;;;;5033384;28;50838;-63
2022/07/20 05:50:41;;;;;;;;;23.25;22.25;;;;;;;;5049370;28;51053;-62
2022/07/20 05:53:06;;;;;;;;;18.25;18.25;;;;;;;;5042112;28;51304;-62
2022/07/20 05:55:33;;;;;;;;;24.50;21.50;;;;;;;;5035680;28;51689;-62
2022/07/20 05:57:58;;;;;;;;;24.50;22.75;;;;;;;;5040783;28;50985;-62
2022/07/20 06:00:23;;;;;;;;;26.50;25.50;;;;;;;;5050609;28;50985;-62
2022/07/20 06:02:48;;;;;;;;;26.75;26.25;;;;;;;;5052041;28;51132;-62
2022/07/20 06:05:13;;;;;;;;;23.75;23.75;;;;;;;;5048631;28;51624;-61
2022/07/20 06:07:39;;;;;;;;;22.50;22.50;;;;;;;;5036011;28;52195;-61
2022/07/20 06:10:05;;;;;;;;;22.75;22.25;;;;;;;;5033546;28;51091;-61
2022/07/20 06:12:30;;;;;;;;;25.75;24.75;;;;;;;;5030977;28;51122;-61
2022/07/20 06:14:55;;;;;;;;;25.00;24.00;;;;;;;;5046100;28;51185;-63
2022/07/20 06:17:20;;;;;;;;;21.75;21.50;;;;;;;;5046414;28;51281;-62
2022/07/20 06:19:45;;;;;;;;;22.75;21.75;;;;;;;;5030796;28;51270;-62
2022/07/20 06:22:11;;;;;;;;;24.25;24.25;;;;;;;;5036834;28;51096;-62
2022/07/20 06:24:36;;;;;;;;;21.50;21.50;;;;;;;;5046212;28;51690;-61
2022/07/20 06:27:01;;;;;;;;;28.75;27.50;;;;;;;;5050498;28;50997;-62
2022/07/20 06:29:27;;;;;;;;;21.50;21.00;;;;;;;;5051444;28;51297;-62
2022/07/20 06:31:52;;;;;;;;;24.75;24.75;;;;;;;;5036714;28;51425;-62
2022/07/20 06:34:18;;;;;;;;;30.25;29.00;;;;;;;;5040136;28;51210;-62
2022/07/20 06:36:45;;;;;;;;;27.25;26.75;;;;;;;;5053161;28;51235;-62
2022/07/20 06:39:10;;;;;;;;;24.25;22.50;;;;;;;;5038229;28;51179;-62
2022/07/20 06:41:36;;;;;;;;;24.25;23.75;;;;;;;;5034316;28;51360;-62
2022/07/20 06:44:01;;;;;;;;;25.00;25.00;;;;;;;;5016083;28;52905;-63
2022/07/20 06:46:26;;;;;;;;;27.50;26.50;;;;;;;;5033956;28;51010;-62
2022/07/20 06:48:52;;;;;;;;;28.50;27.50;;;;;;;;5034553;28;51192;-62
2022/07/20 06:51:17;;;;;;;;;27.50;26.25;;;;;;;;5037055;28;50982;-62
2022/07/20 06:53:42;;;;;;;;;27.00;24.00;;;;;;;;5047449;28;52998;-62
2022/07/20 06:56:07;;;;;;;;;25.75;24.50;;;;;;;;5034512;28;51028;-62
2022/07/20 06:58:32;;;;;;;;;27.50;27.00;;;;;;;;5034343;28;51081;-62
2022/07/20 07:00:58;;;;;;;;;26.75;25.00;;;;;;;;5040724;28;51256;-63
2022/07/20 07:03:23;;;;;;;;;27.50;24.75;;;;;;;;5048535;28;53001;-61
2022/07/20 07:05:48;;;;;;;;;24.50;23.25;;;;;;;;5054331;28;50976;-62
2022/07/20 07:08:13;;;;;;;;;28.25;25.25;;;;;;;;5054793;28;51119;-61
2022/07/20 07:10:38;;;;;;;;;24.75;23.25;;;;;;;;5054404;28;50873;-61
2022/07/20 07:13:04;;;;;;;;;23.50;21.25;;;;;;;;5052259;28;51124;-61
2022/07/20 07:15:30;;;;;;;;;27.50;27.25;;;;;;;;5030045;28;51280;-62
2022/07/20 07:17:55;;;;;;;;;26.75;26.25;;;;;;;;5054265;28;51140;-61
2022/07/20 07:20:20;;;;;;;;;27.25;22.75;;;;;;;;5034475;28;50904;-62
2022/07/20 07:22:46;;;;;;;;;24.50;23.75;;;;;;;;5034021;28;52133;-67
2022/07/20 07:25:11;;;;;;;;;25.00;24.50;;;;;;;;5034579;28;50998;-62
2022/07/20 07:27:36;;;;;;;;;23.50;22.75;;;;;;;;5041645;28;50873;-62
2022/07/20 07:30:01;;;;;;;;;26.25;24.75;;;;;;;;5033726;28;50821;-62
2022/07/20 07:32:27;;;;;;;;;24.50;23.50;;;;;;;;5015550;28;53977;-62
2022/07/20 07:34:52;;;;;;;;;30.25;28.25;;;;;;;;5051248;28;50993;-62
2022/07/20 07:37:17;;;;;;;;;26.50;23.75;;;;;;;;5052843;28;50887;-61
2022/07/20 07:39:42;;;;;;;;;24.50;22.25;;;;;;;;5043066;28;51336;-62
2022/07/20 07:42:08;;;;;;;;;26.75;26.75;;;;;;;;5033631;28;50889;-61
2022/07/20 07:44:33;;;;;;;;;27.50;25.75;;;;;;;;5033329;28;50885;-64
2022/07/20 07:46:58;;;;;;;;;27.50;27.25;;;;;;;;5033767;28;50910;-62
2022/07/20 07:49:24;;;;;;;;;26.00;25.25;;;;;;;;5034212;28;51396;-62
2022/07/20 07:51:49;;;;;;;;;24.25;23.25;;;;;;;;5027401;28;51969;-63
2022/07/20 07:54:14;;;;;;;;;23.75;23.75;;;;;;;;5048019;28;51187;-63
2022/07/20 07:56:41;;;;;;;;;24.00;21.50;;;;;;;;5033536;28;51045;-62
2022/07/20 07:59:06;;;;;;;;;26.50;25.50;;;;;;;;5033498;28;51299;-63
2022/07/20 08:01:34;;;;;;;;;24.75;24.50;;;;;;;;5043489;28;52919;-63
2022/07/20 08:03:59;;;;;;;;;27.00;26.25;;;;;;;;5034459;28;50998;-62
2022/07/20 08:06:24;;;;;;;;;25.75;24.50;;;;;;;;5015213;28;51179;-64
2022/07/20 08:08:49;;;;;;;;;23.00;21.25;;;;;;;;5020626;28;51410;-62
2022/07/20 08:11:15;;;;;;;;;25.75;25.25;;;;;;;;5053201;28;51735;-62
2022/07/20 08:13:40;;;;;;;;;25.50;25.25;;;;;;;;5051936;28;51184;-61
2022/07/20 08:16:06;;;;;;;;;27.50;26.50;;;;;;;;5047725;28;50921;-61
2022/07/20 08:18:31;;;;;;;;;31.25;28.50;;;;;;;;5048375;28;51233;-62
2022/07/20 08:20:56;;;;;;;;;22.75;22.75;;;;;;;;5032676;28;51730;-62
2022/07/20 08:23:21;;;;;;;;;26.25;24.00;;;;;;;;5032542;28;51031;-61
2022/07/20 08:25:46;;;;;;;;;20.25;20.00;;;;;;;;5033993;28;50892;-62
2022/07/20 08:28:14;;;;;;;;;22.25;22.25;;;;;;;;5017305;28;50900;-63
2022/07/20 08:30:40;;;;;;;;;27.00;25.50;;;;;;;;5032501;28;50917;-62
2022/07/20 08:33:06;;;;;;;;;31.25;29.50;;;;;;;;5046645;28;51054;-63
2022/07/20 08:35:31;;;;;;;;;29.50;28.75;;;;;;;;5052655;28;50830;-61
2022/07/20 08:37:56;;;;;;;;;29.75;27.75;;;;;;;;5051906;28;51214;-62
2022/07/20 08:40:22;;;;;;;;;28.75;25.75;;;;;;;;5052758;28;51428;-62
2022/07/20 08:42:47;;;;;;;;;25.25;25.25;;;;;;;;5052613;28;50991;-62
2022/07/20 08:45:13;;;;;;;;;23.50;23.50;;;;;;;;5052844;28;51122;-62
2022/07/20 08:47:39;;;;;;;;;29.25;28.00;;;;;;;;5052772;28;51355;-63
2022/07/20 08:50:05;;;;;;;;;25.25;24.00;;;;;;;;5032513;28;51376;-62
2022/07/20 08:52:30;;;;;;;;;25.50;25.00;;;;;;;;5028791;28;51025;-62
2022/07/20 08:54:55;;;;;;;;;28.75;25.00;;;;;;;;5032932;28;50996;-61
2022/07/20 08:57:20;;;;;;;;;24.75;24.50;;;;;;;;5032694;28;51334;-62
2022/07/20 08:59:46;;;;;;;;;26.25;23.50;;;;;;;;5031901;28;52252;-62
2022/07/20 09:02:11;;;;;;;;;26.25;26.00;;;;;;;;5045444;28;51005;-61
2022/07/20 09:04:49;;;;;;;;;27.75;26.50;;;;;;;;5036908;28;50843;-62
2022/07/20 09:07:14;;;;;;;;;25.25;25.25;;;;;;;;5032291;28;51175;-62
2022/07/20 09:09:39;;;;;;;;;26.75;25.50;;;;;;;;5031843;28;51872;-61
2022/07/20 09:12:05;;;;;;;;;24.00;23.50;;;;;;;;5032245;28;50848;-62
2022/07/20 09:14:36;;;;;;;;;23.75;22.75;;;;;;;;5024876;28;51282;-63
2022/07/20 09:17:13;;;;;;;;;23.50;23.50;;;;;;;;5046839;28;50934;-62
2022/07/20 09:19:58;;;;;;;;;23.00;23.00;;;;;;;;5037481;28;52001;-64
2022/07/20 09:22:38;;;;;;;;;25.75;25.25;;;;;;;;5041629;28;51055;-62
2022/07/20 09:25:09;;;;;;;;;24.00;23.50;;;;;;;;5052170;28;51022;-63
2022/07/20 09:27:34;;;;;;;;;23.00;22.00;;;;;;;;5038595;28;51115;-63
2022/07/20 09:30:04;;;;;;;;;22.00;21.25;;;;;;;;5031660;28;52032;-63
2022/07/20 09:32:29;;;;;;;;;16.75;16.25;;;;;;;;5051858;28;51154;-63
2022/07/20 09:35:00;;;;;;;;;19.67;18.33;;;;;;;;5051952;28;51222;-63
2022/07/20 09:37:28;;;;;;;;;18.00;17.00;;;;;;;;5051203;28;51112;-62
2022/07/20 09:40:00;;;;;;;;;28.00;25.75;;;;;;;;5051193;28;51059;-63
2022/07/20 09:42:35;;;;;;;;;24.25;24.25;;;;;;;;5051388;28;50919;-62
2022/07/20 09:45:17;;;;;;;;;17.33;16.33;;;;;;;;5051490;28;50990;-63
2022/07/20 09:47:59;;;;;;;;;12.00;12.00;;;;;;;;5050890;28;51290;-62
2022/07/20 09:50:29;;;;;;;;;17.00;16.67;;;;;;;;5039895;28;51929;-62
2022/07/20 09:52:54;;;;;;;;;18.00;17.50;;;;;;;;5040027;28;50982;-62
2022/07/20 09:55:20;;;;;;;;;14.33;14.33;;;;;;;;5037149;28;50776;-63
2022/07/20 09:57:45;;;;;;;;;13.00;12.67;;;;;;;;5031518;28;51134;-62
2022/07/20 10:00:11;;;;;;;;;14.00;12.67;;;;;;;;5035799;28;51619;-63
2022/07/20 10:02:37;;;;;;;;;16.00;15.33;;;;;;;;5053937;28;51536;-63
2022/07/20 10:05:02;;;;;;;;;14.33;12.67;;;;;;;;5052566;28;51149;-62
2022/07/20 10:07:27;;;;;;;;;15.67;13.00;;;;;;;;5017352;28;51188;-62
2022/07/20 10:09:53;;;;;;;;;11.00;10.67;;;;;;;;5048792;28;51359;-62
2022/07/20 10:12:18;;;;;;;;;13.00;13.00;;;;;;;;5054909;28;50887;-61
2022/07/20 10:14:46;;;;;;;;;13.67;12.67;;;;;;;;5053108;28;51036;-62
2022/07/20 10:17:11;;;;;;;;;9.33;9.00;;;;;;;;5039479;28;51042;-62
2022/07/20 10:19:46;;;;;;;;;9.67;8.67;;;;;;;;5035326;28;51819;-63
2022/07/20 10:22:11;;;;;;;;;10.00;10.00;;;;;;;;5034435;28;50892;-62
2022/07/20 10:24:38;;;;;;;;;11.67;11.00;;;;;;;;5034768;28;50827;-62
2022/07/20 10:27:22;;;;;;;;;11.67;11.33;;;;;;;;5050401;28;50916;-62
2022/07/20 10:29:52;;;;;;;;;27.50;27.00;;;;;;;;5050283;28;51838;-63
2022/07/20 10:32:20;;;;;;;;;9.00;9.00;;;;;;;;5053975;28;51043;-62
2022/07/20 10:34:55;;;;;;;;;13.00;12.00;;;;;;;;5053961;28;51157;-63
2022/07/20 10:37:23;;;;;;;;;10.67;10.67;;;;;;;;5053574;28;50905;-62
2022/07/20 10:39:50;;;;;;;;;9.33;9.00;;;;;;;;5044470;28;51040;-63
2022/07/20 10:42:27;;;;;;;;;13.00;12.33;;;;;;;;5036254;28;50964;-63
2022/07/20 10:44:53;;;;;;;;;11.67;11.00;;;;;;;;5045657;28;51059;-65
2022/07/20 10:47:37;;;;;;;;;10.00;10.00;;;;;;;;5033991;28;51168;-61
2022/07/20 10:50:03;;;;;;;;;10.67;10.67;;;;;;;;5035370;28;51037;-62
2022/07/20 10:52:29;;;;;;;;;10.33;9.67;;;;;;;;5041203;28;50980;-63
2022/07/20 10:54:55;;;;;;;;;16.75;16.25;;;;;;;;5043380;28;51029;-63
2022/07/20 10:57:20;;;;;;;;;15.50;15.00;;;;;;;;5033730;28;50997;-62
2022/07/20 10:59:45;;;;;;;;;16.33;14.33;;;;;;;;5033572;28;51595;-63
2022/07/20 11:02:12;;;;;;;;;12.33;11.33;;;;;;;;5050725;28;50983;-62
2022/07/20 11:04:43;;;;;;;;;16.75;14.50;;;;;;;;5043880;28;51073;-62
2022/07/20 11:07:26;;;;;;;;;10.00;10.00;;;;;;;;5035300;28;51287;-62
2022/07/20 11:09:51;;;;;;;;;9.25;8.25;;;;;;;;5053482;28;50847;-62
2022/07/20 11:12:23;;;;;;;;;10.00;9.67;;;;;;;;5052956;28;50891;-63
2022/07/20 11:14:52;;;;;;;;;15.33;15.33;;;;;;;;5052066;28;51260;-62
2022/07/20 11:17:17;;;;;;;;;10.00;10.00;;;;;;;;5050070;28;51251;-63
2022/07/20 11:19:42;;;;;;;;;14.25;13.25;;;;;;;;5044412;28;52021;-63
2022/07/20 11:22:08;;;;;;;;;10.00;10.00;;;;;;;;5033698;28;51065;-62
2022/07/20 11:24:34;;;;;;;;;13.00;13.00;;;;;;;;5033384;28;51114;-63
2022/07/20 11:27:12;;;;;;;;;12.50;11.75;;;;;;;;5033923;28;50948;-64
2022/07/20 11:29:44;;;;;;;;;17.75;16.75;;;;;;;;5049634;28;51762;-62
2022/07/20 11:32:10;;;;;;;;;13.75;13.00;;;;;;;;5052191;28;51131;-63
2022/07/20 11:34:42;;;;;;;;;12.75;11.25;;;;;;;;5017902;28;51220;-62
2022/07/20 11:37:07;;;;;;;;;17.25;17.00;;;;;;;;5033779;28;51080;-63
2022/07/20 11:39:33;;;;;;;;;27.75;26.25;;;;;;;;5032923;28;51005;-62
2022/07/20 11:41:58;;;;;;;;;18.00;18.00;;;;;;;;5040718;28;51039;-62
2022/07/20 11:44:27;;;;;;;;;17.25;17.25;;;;;;;;5017020;28;51264;-62
2022/07/20 11:46:53;;;;;;;;;15.75;14.50;;;;;;;;5033765;28;51246;-62
2022/07/20 11:49:19;;;;;;;;;15.50;15.00;;;;;;;;5032825;28;52154;-62
2022/07/20 11:51:55;;;;;;;;;10.00;10.00;;;;;;;;5036583;28;50908;-61
2022/07/20 11:54:23;;;;;;;;;14.50;14.25;;;;;;;;5045444;28;51025;-63
2022/07/20 11:56:49;;;;;;;;;18.25;17.50;;;;;;;;5034171;28;51332;-62
2022/07/20 11:59:15;;;;;;;;;16.25;16.25;;;;;;;;5032814;28;51504;-62
2022/07/20 12:01:41;;;;;;;;;16.50;14.25;;;;;;;;5046829;28;51013;-62
2022/07/20 12:04:10;;;;;;;;;14.67;14.67;;;;;;;;5038308;28;51050;-67
2022/07/20 12:06:36;;;;;;;;;15.00;14.50;;;;;;;;5034047;28;51220;-62
2022/07/20 12:09:01;;;;;;;;;16.67;15.33;;;;;;;;5030926;28;52861;-63
2022/07/20 12:11:27;;;;;;;;;18.25;17.75;;;;;;;;5054536;28;51243;-62
2022/07/20 12:13:52;;;;;;;;;16.25;15.75;;;;;;;;5035613;28;51083;-63
2022/07/20 12:16:17;;;;;;;;;13.00;12.00;;;;;;;;5051100;28;51093;-63
2022/07/20 12:18:47;;;;;;;;;25.25;25.00;;;;;;;;5033071;28;53733;-62
2022/07/20 12:21:17;;;;;;;;;18.00;18.00;;;;;;;;5033298;28;50894;-62
2022/07/20 12:23:47;;;;;;;;;23.50;23.50;;;;;;;;5039620;28;50964;-62
2022/07/20 12:26:30;;;;;;;;;17.75;17.75;;;;;;;;5053040;28;51080;-63
2022/07/20 12:28:58;;;;;;;;;17.50;16.00;;;;;;;;5041176;28;52203;-62
2022/07/20 12:31:24;;;;;;;;;16.00;16.00;;;;;;;;5013939;28;50912;-63
2022/07/20 12:33:59;;;;;;;;;19.00;17.50;;;;;;;;5032979;28;50950;-63
2022/07/20 12:36:31;;;;;;;;;21.00;19.00;;;;;;;;5032859;28;50836;-63
2022/07/20 12:38:56;;;;;;;;;21.25;21.00;;;;;;;;5032589;28;51848;-63
2022/07/20 12:41:21;;;;;;;;;18.00;16.00;;;;;;;;5015468;28;50954;-62
2022/07/20 12:43:46;;;;;;;;;25.25;20.50;;;;;;;;5032461;28;51043;-64
2022/07/20 12:46:16;;;;;;;;;24.25;24.00;;;;;;;;5032013;28;51052;-63
2022/07/20 12:48:42;;;;;;;;;22.75;20.75;;;;;;;;5014745;28;52269;-63
2022/07/20 12:51:10;;;;;;;;;17.50;17.00;;;;;;;;5038100;28;51126;-63
2022/07/20 12:53:35;;;;;;;;;23.75;22.00;;;;;;;;5050802;28;51012;-63
2022/07/20 12:56:01;;;;;;;;;18.25;18.00;;;;;;;;5052226;28;51107;-63
2022/07/20 12:58:27;;;;;;;;;23.75;21.00;;;;;;;;5051928;28;51750;-63
2022/07/20 13:00:52;;;;;;;;;20.25;20.25;;;;;;;;5045153;28;50954;-63
2022/07/20 13:03:17;;;;;;;;;23.25;23.00;;;;;;;;5037340;28;51235;-63
2022/07/20 13:05:43;;;;;;;;;20.25;19.75;;;;;;;;5052171;28;50938;-63
2022/07/20 13:08:08;;;;;;;;;20.50;20.50;;;;;;;;5021436;28;52834;-63
2022/07/20 13:10:33;;;;;;;;;21.75;20.25;;;;;;;;5031964;28;51003;-63
2022/07/20 13:12:58;;;;;;;;;20.00;19.00;;;;;;;;5032441;28;50920;-63
2022/07/20 13:15:24;;;;;;;;;21.50;19.75;;;;;;;;5044703;28;51142;-63
2022/07/20 13:17:49;;;;;;;;;17.00;16.50;;;;;;;;5051766;28;51690;-63
2022/07/20 13:20:15;;;;;;;;;19.75;19.25;;;;;;;;5032820;28;50982;-64
2022/07/20 13:22:40;;;;;;;;;16.50;15.50;;;;;;;;5032052;28;50998;-61
2022/07/20 13:25:06;;;;;;;;;21.50;19.00;;;;;;;;5049274;28;50959;-63
2022/07/20 13:27:31;;;;;;;;;19.50;19.25;;;;;;;;5033647;28;52592;-63
2022/07/20 13:29:56;;;;;;;;;17.25;16.75;;;;;;;;5032960;28;51061;-62
2022/07/20 13:32:21;;;;;;;;;19.00;18.50;;;;;;;;5051863;28;51023;-63
2022/07/20 13:34:47;;;;;;;;;16.75;15.75;;;;;;;;5051228;28;51458;-63
2022/07/20 13:37:12;;;;;;;;;19.25;18.75;;;;;;;;5055289;28;51616;-62
2022/07/20 13:39:38;;;;;;;;;16.00;15.25;;;;;;;;5055220;28;51563;-63
2022/07/20 13:42:03;;;;;;;;;11.00;11.00;;;;;;;;5055429;28;51052;-64
2022/07/20 13:44:28;;;;;;;;;16.00;15.50;;;;;;;;5036565;28;51289;-62
2022/07/20 13:46:54;;;;;;;;;18.50;18.25;;;;;;;;5042524;28;52139;-63
2022/07/20 13:49:19;;;;;;;;;19.50;19.25;;;;;;;;5034973;28;51213;-62
2022/07/20 13:51:44;;;;;;;;;16.75;16.25;;;;;;;;5038532;28;51029;-63
2022/07/20 13:54:09;;;;;;;;;17.00;17.00;;;;;;;;5049221;28;51308;-63
2022/07/20 13:56:35;;;;;;;;;14.50;13.75;;;;;;;;5034904;28;51038;-63
2022/07/20 13:59:00;;;;;;;;;16.25;15.75;;;;;;;;5044405;28;51045;-62
2022/07/20 14:01:26;;;;;;;;;19.00;18.00;;;;;;;;5045739;28;51173;-61
2022/07/20 14:03:51;;;;;;;;;15.75;14.75;;;;;;;;5050718;28;51313;-62
2022/07/20 14:06:16;;;;;;;;;18.00;16.00;;;;;;;;5034420;28;51783;-63
2022/07/20 14:08:42;;;;;;;;;13.67;13.33;;;;;;;;5038982;28;51001;-63
2022/07/20 14:11:07;;;;;;;;;14.00;13.00;;;;;;;;5043572;28;51093;-62
2022/07/20 14:13:33;;;;;;;;;13.00;13.00;;;;;;;;5038458;28;51251;-63
2022/07/20 14:15:58;;;;;;;;;13.00;12.33;;;;;;;;5030441;28;54195;-64